M I D A S
Marine Information and Data Acquisition System
Tripno 250 of the Zeeleeuw from 2002-04-25 07:43:40 to 2002-04-25 11:15:19
Back to CruiseResearch ActivitiesStationsMapUnderway DataData graphs

EquipmentUnitsComment
TimeDGPSUTC
LatitudeDGPSDM.mWGS84
LongitudeDGPSDM.mWGS84
HeadingGyrodeg 
SOGDGPSknotsSpeed over ground
COGDGPSdegCourse over ground
DepthEcho soundermeters200 kHz
Missing or incorrect values are displayed as -999
Navigation data collected by the RV Zeeleeuw from 2002-04-25 07:43:40 to 2002-04-25 11:15:19
                                                                                    Next 1000 lines
Time Latitude Longitude Heading SOG COG Depth
2002-04-25 07:43:51 51°13.687 2°55.904 103.2 0.1 266 -999
2002-04-25 07:43:55 51°13.687 2°55.903 102.7 0.2 281 -999
2002-04-25 07:44:00 51°13.687 2°55.902 102.2 0.4 278.9 -999
2002-04-25 07:44:05 51°13.687 2°55.899 101.7 0.8 278.9 -999
2002-04-25 07:44:10 51°13.688 2°55.897 101.5 1.1 282.1 7.9
2002-04-25 07:44:15 51°13.688 2°55.893 101.2 1.4 284.1 5.1
2002-04-25 07:44:21 51°13.689 2°55.889 101 1.7 284.2 -999
2002-04-25 07:44:26 51°13.689 2°55.884 100.5 2 282.9 -999
2002-04-25 07:44:31 51°13.69 2°55.879 99.8 2.2 281.9 -999
2002-04-25 07:44:36 51°13.691 2°55.874 99.2 2.4 281.4 -999
2002-04-25 07:44:41 51°13.691 2°55.868 98.5 2.6 279.8 -999
2002-04-25 07:44:46 51°13.692 2°55.862 97.7 2.7 279.2 -999
2002-04-25 07:44:51 51°13.693 2°55.855 97 2.8 278.3 -999
2002-04-25 07:44:56 51°13.693 2°55.849 96.3 2.9 278.4 -999
2002-04-25 07:45:01 51°13.694 2°55.842 95.7 3 278.6 -999
2002-04-25 07:45:06 51°13.695 2°55.835 94.7 3.1 277.8 -999
2002-04-25 07:45:11 51°13.695 2°55.828 93.8 3.1 277.1 -999
2002-04-25 07:45:16 51°13.696 2°55.821 93 3.1 276.8 -999
2002-04-25 07:45:21 51°13.696 2°55.815 91.8 3.1 276 9.3
2002-04-25 07:45:26 51°13.696 2°55.808 90.7 3.1 275.4 9.4
2002-04-25 07:45:31 51°13.697 2°55.801 89.5 3 274.4 -999
2002-04-25 07:45:36 51°13.697 2°55.795 87.8 3 273.5 -999
2002-04-25 07:45:41 51°13.697 2°55.788 86.3 3 271.9 10.7
2002-04-25 07:45:46 51°13.697 2°55.782 84.7 2.9 270.3 11.7
2002-04-25 07:45:51 51°13.696 2°55.776 83.2 2.9 268.5 12.7
2002-04-25 07:45:55 51°13.696 2°55.771 81.3 2.8 267.1 -999
2002-04-25 07:46:00 51°13.696 2°55.765 79.5 2.8 265.2 13.6
2002-04-25 07:46:06 51°13.695 2°55.758 77.8 2.7 262.7 13.7
2002-04-25 07:46:10 51°13.695 2°55.754 76.3 2.6 261.6 13.7
2002-04-25 07:46:15 51°13.694 2°55.748 75 2.5 260 13.2
2002-04-25 07:46:20 51°13.694 2°55.743 73.7 2.4 259.1 13.2
2002-04-25 07:46:25 51°13.693 2°55.738 72.3 2.3 257.1 12.8
2002-04-25 07:46:30 51°13.692 2°55.733 71.5 2.3 255.7 13.2
2002-04-25 07:46:35 51°13.691 2°55.729 70.3 2.2 254.9 12.7
2002-04-25 07:46:40 51°13.69 2°55.725 69.5 2.1 254.3 12.4
2002-04-25 07:46:45 51°13.69 2°55.722 68 1.6 254.5 12.1
2002-04-25 07:46:50 51°13.69 2°55.722 64.7 0.9 260.3 12.1
2002-04-25 07:46:55 51°13.691 2°55.722 57.8 0.4 357.4 12.5
2002-04-25 07:47:00 51°13.693 2°55.725 50 1 33.2 11.6
2002-04-25 07:47:05 51°13.696 2°55.727 41 2 34.2 12.1
2002-04-25 07:47:10 51°13.699 2°55.73 32.5 2.5 30.5 12.9
2002-04-25 07:47:15 51°13.704 2°55.732 22.7 3.2 21.8 12.9
2002-04-25 07:47:20 51°13.709 2°55.734 13.3 3.5 14.7 11.9
2002-04-25 07:47:25 51°13.715 2°55.733 3.7 3.9 3.8 11.7
2002-04-25 07:47:30 51°13.721 2°55.732 353.7 4.1 356.8 9.7
2002-04-25 07:47:35 51°13.726 2°55.729 345.2 4.2 347 10.5
2002-04-25 07:47:40 51°13.732 2°55.726 340.5 4.2 342.3 9.4
2002-04-25 07:47:45 51°13.737 2°55.722 337 4 337.4 10.1
2002-04-25 07:47:50 51°13.741 2°55.719 335 3.9 335.7 -999
2002-04-25 07:47:55 51°13.746 2°55.714 333.5 3.8 332.9 9.8
2002-04-25 07:48:00 51°13.751 2°55.71 332.2 3.8 331.4 9.9
2002-04-25 07:48:05 51°13.756 2°55.704 329.2 4.1 327.9 9.8
2002-04-25 07:48:10 51°13.761 2°55.699 325.8 4.3 325.5 9.8
2002-04-25 07:48:15 51°13.765 2°55.693 323.7 4.4 322.1 9.9
2002-04-25 07:48:20 51°13.77 2°55.686 323 4.4 321.1 9.3
2002-04-25 07:48:25 51°13.775 2°55.68 322.7 4.5 320.2 10
2002-04-25 07:48:30 51°13.78 2°55.674 322.3 4.5 319.9 10
2002-04-25 07:48:35 51°13.785 2°55.667 322.2 4.6 319.4 10.4
2002-04-25 07:48:40 51°13.79 2°55.661 322.3 4.6 319.5 10.3
2002-04-25 07:48:45 51°13.795 2°55.654 322.7 4.7 320.4 10.1
2002-04-25 07:48:50 51°13.8 2°55.648 324.2 4.7 321.2 10.2
2002-04-25 07:48:55 51°13.805 2°55.642 328.2 4.7 323.9 10.3
2002-04-25 07:49:00 51°13.811 2°55.637 331.5 4.6 326.5 10
2002-04-25 07:49:05 51°13.816 2°55.632 334.5 4.5 329.8 10
2002-04-25 07:49:10 51°13.821 2°55.628 336.8 4.5 331.8 10.3
2002-04-25 07:49:15 51°13.827 2°55.623 338.8 4.4 334.1 -999
2002-04-25 07:49:20 51°13.833 2°55.62 340.2 4.3 335.4 10.3
2002-04-25 07:49:25 51°13.838 2°55.616 340.8 4.3 336.8 9.8
2002-04-25 07:49:30 51°13.843 2°55.613 341 4.2 337.3 10.1
2002-04-25 07:49:35 51°13.848 2°55.609 340.5 4 337.2 9.8
2002-04-25 07:49:40 51°13.853 2°55.605 340 4 337.2 9.9
2002-04-25 07:49:46 51°13.859 2°55.602 340.2 3.9 337.6 9.6
2002-04-25 07:49:50 51°13.863 2°55.599 340.7 3.9 338.2 9.4
2002-04-25 07:49:55 51°13.868 2°55.596 342.2 3.8 339.3 9.7
2002-04-25 07:50:00 51°13.873 2°55.594 343.8 3.7 340.1 9.9
2002-04-25 07:50:05 51°13.878 2°55.592 345.3 3.6 341.9 9.6
2002-04-25 07:50:10 51°13.882 2°55.589 346.5 3.6 342.7 9.4
2002-04-25 07:50:15 51°13.887 2°55.587 347.3 3.5 343.8 9.9
2002-04-25 07:50:20 51°13.892 2°55.585 347.8 3.5 344.1 9.9
2002-04-25 07:50:25 51°13.897 2°55.583 348.3 3.5 345 10.2
2002-04-25 07:50:30 51°13.901 2°55.581 348.7 3.5 345.1 10.1
2002-04-25 07:50:35 51°13.906 2°55.579 349.2 3.4 345.6 10.4
2002-04-25 07:50:40 51°13.91 2°55.577 349.3 3.4 345.7 9.6
2002-04-25 07:50:45 51°13.915 2°55.576 349.7 3.4 346.3 10.1
2002-04-25 07:50:51 51°13.921 2°55.573 349.2 3.4 346.5 9.9
2002-04-25 07:50:55 51°13.925 2°55.572 347.8 3.6 346 10.2
2002-04-25 07:51:00 51°13.93 2°55.569 345.8 3.8 345.4 10
2002-04-25 07:51:05 51°13.935 2°55.567 344.2 4 343.6 10.1
2002-04-25 07:51:10 51°13.941 2°55.564 343.3 4.1 342.6 9.9
2002-04-25 07:51:15 51°13.946 2°55.561 342.8 4.1 341.9 9.9
2002-04-25 07:51:20 51°13.952 2°55.558 342.5 4.1 341.5 9.7
2002-04-25 07:51:26 51°13.958 2°55.555 342.3 4 341 7.7
2002-04-25 07:51:30 51°13.962 2°55.553 342.2 4 341 10.2
2002-04-25 07:51:35 51°13.966 2°55.55 341.8 3.7 340.7 10.4
2002-04-25 07:51:40 51°13.971 2°55.548 341.2 3.5 340.5 10.4
2002-04-25 07:51:45 51°13.975 2°55.545 340.5 3.2 340.4 10.3
2002-04-25 07:51:50 51°13.978 2°55.543 340 2.9 340.5 10
2002-04-25 07:51:55 51°13.982 2°55.541 341 2.7 340.4 10.4
2002-04-25 07:52:00 51°13.985 2°55.539 342.3 2.6 341.3 10.2
2002-04-25 07:52:06 51°13.99 2°55.537 343.3 2.7 341.7 10.5
2002-04-25 07:52:10 51°13.993 2°55.536 343.7 2.8 342.1 10.7
2002-04-25 07:52:15 51°13.997 2°55.534 343 2.9 341.5 10.8
2002-04-25 07:52:20 51°14.001 2°55.531 341.3 3 340.9 10.6
2002-04-25 07:52:25 51°14.004 2°55.529 339 3.1 339 10.8
2002-04-25 07:52:30 51°14.009 2°55.526 336.5 3.2 337.8 11.1
2002-04-25 07:52:35 51°14.013 2°55.523 335.3 3.4 336.2 11.3
2002-04-25 07:52:40 51°14.018 2°55.519 335.3 3.5 336 10.8
2002-04-25 07:52:45 51°14.022 2°55.516 335.5 3.6 335.8 10.7
2002-04-25 07:52:50 51°14.027 2°55.512 335.7 3.8 335.8 10.6
2002-04-25 07:52:55 51°14.032 2°55.509 335.5 3.9 335.4 -999
2002-04-25 07:53:00 51°14.037 2°55.505 335 4 335.1 10
2002-04-25 07:53:05 51°14.042 2°55.501 334.5 4.1 334.8 10.5
2002-04-25 07:53:10 51°14.047 2°55.497 334 4.1 334.4 10.3
2002-04-25 07:53:15 51°14.053 2°55.493 334 4.2 334.2 10.3
2002-04-25 07:53:20 51°14.058 2°55.489 334 4.2 333.9 10.6
2002-04-25 07:53:25 51°14.064 2°55.485 334.3 4.3 333.9 9.5
2002-04-25 07:53:30 51°14.069 2°55.48 334.5 4.4 333.9 10.7
2002-04-25 07:53:35 51°14.075 2°55.476 334.5 4.5 333.9 10.7
2002-04-25 07:53:40 51°14.08 2°55.471 334.3 4.5 333.6 10.3
2002-04-25 07:53:46 51°14.087 2°55.466 334.2 4.6 332.9 10.9
2002-04-25 07:53:51 51°14.093 2°55.461 333.8 4.6 332.2 11
2002-04-25 07:53:55 51°14.097 2°55.457 333.7 4.6 331.7 10.9
2002-04-25 07:54:00 51°14.103 2°55.452 333.5 4.6 331.8 10.9
2002-04-25 07:54:05 51°14.109 2°55.448 333.8 4.6 332.6 10.7
2002-04-25 07:54:10 51°14.114 2°55.443 334.2 4.6 333.2 10.6
2002-04-25 07:54:15 51°14.12 2°55.439 334.8 4.6 333.5 10.7
2002-04-25 07:54:20 51°14.126 2°55.434 335.3 4.6 334 10.8
2002-04-25 07:54:26 51°14.132 2°55.43 335.7 4.6 334.2 10.9
2002-04-25 07:54:30 51°14.137 2°55.426 335.7 4.5 334.5 11
2002-04-25 07:54:35 51°14.142 2°55.422 335.2 4.5 334.1 10.3
2002-04-25 07:54:40 51°14.148 2°55.417 334.7 4.5 333.8 10.7
2002-04-25 07:54:45 51°14.153 2°55.413 333.8 4.4 332.8 10.9
2002-04-25 07:54:51 51°14.16 2°55.407 333 4.4 332.3 11.1
2002-04-25 07:54:55 51°14.164 2°55.403 331.8 4.4 331.3 10.6
2002-04-25 07:55:00 51°14.169 2°55.398 330.7 4.4 330.6 9.8
2002-04-25 07:55:05 51°14.175 2°55.393 329.3 4.4 329.2 -999
2002-04-25 07:55:10 51°14.18 2°55.388 328.2 4.4 328.3 10.5
2002-04-25 07:55:16 51°14.186 2°55.382 327.2 4.4 326.9 10.7
2002-04-25 07:55:20 51°14.19 2°55.377 326.2 4.4 326 10.5
2002-04-25 07:55:25 51°14.194 2°55.372 325 4.3 324.5 7.5
2002-04-25 07:55:30 51°14.199 2°55.366 323.7 4.3 323.5 10.7
2002-04-25 07:55:35 51°14.204 2°55.36 322.3 4.3 322.3 10.9
2002-04-25 07:55:40 51°14.208 2°55.354 321.2 4.3 321.5 -999
2002-04-25 07:55:45 51°14.213 2°55.348 320.2 4.3 320.1 9.6
2002-04-25 07:55:50 51°14.217 2°55.342 320.3 4.3 319.9 11
2002-04-25 07:55:56 51°14.223 2°55.334 321.2 4.3 320.2 -999
2002-04-25 07:56:00 51°14.226 2°55.329 321.8 4.3 320.6 10.4
2002-04-25 07:56:05 51°14.231 2°55.323 322 4.3 320.7 10.5
2002-04-25 07:56:10 51°14.236 2°55.317 321.5 4.3 321 9.8
2002-04-25 07:56:16 51°14.241 2°55.31 320.8 4.3 320.9 9.4
2002-04-25 07:56:20 51°14.245 2°55.305 320.5 4.3 320.6 -999
2002-04-25 07:56:25 51°14.25 2°55.299 320.2 4.3 320.6 -999
2002-04-25 07:56:31 51°14.255 2°55.292 319.5 4.3 320.2 -999
2002-04-25 07:56:36 51°14.26 2°55.286 318.5 4.3 319.6 10.7
2002-04-25 07:56:40 51°14.263 2°55.28 317 4.3 318.6 11
2002-04-25 07:56:46 51°14.269 2°55.272 315.2 4.4 316.3 11.3
2002-04-25 07:56:50 51°14.272 2°55.267 313.2 4.4 315.3 11
2002-04-25 07:56:55 51°14.276 2°55.26 312.3 4.4 313.6 10.5
2002-04-25 07:57:00 51°14.28 2°55.252 312 4.5 313 10.3
2002-04-25 07:57:05 51°14.285 2°55.244 312.2 4.6 311.4 8.3
2002-04-25 07:57:10 51°14.289 2°55.236 311.3 4.7 311.5 8.7
2002-04-25 07:57:15 51°14.294 2°55.227 310.2 5 310 -999
2002-04-25 07:57:20 51°14.298 2°55.218 309.8 5.2 309.9 9.9
2002-04-25 07:57:26 51°14.304 2°55.207 309.8 5.5 309 7.7
2002-04-25 07:57:30 51°14.308 2°55.199 309.7 5.6 308.7 10.1
2002-04-25 07:57:35 51°14.313 2°55.188 309 5.8 308.4 10.1
2002-04-25 07:57:40 51°14.318 2°55.178 309.7 5.9 308.1 17.7
2002-04-25 07:57:45 51°14.324 2°55.167 311.3 6.1 309.3 9.9
2002-04-25 07:57:50 51°14.33 2°55.157 311.3 6.2 309.9 8.7
2002-04-25 07:57:55 51°14.335 2°55.146 310.7 6.4 310 10
2002-04-25 07:58:00 51°14.34 2°55.135 309.3 6.4 309 -999
2002-04-25 07:58:05 51°14.346 2°55.123 308.2 6.5 307.8 9.9
2002-04-25 07:58:11 51°14.353 2°55.109 308.5 6.6 307.2 9.9
2002-04-25 07:58:15 51°14.357 2°55.1 309.8 6.6 307.9 7.9
2002-04-25 07:58:20 51°14.363 2°55.089 311.2 6.6 308.7 10.5
2002-04-25 07:58:25 51°14.37 2°55.077 312.3 6.7 310.5 9.4
2002-04-25 07:58:30 51°14.376 2°55.066 312.8 6.9 311.6 10.3
2002-04-25 07:58:35 51°14.383 2°55.053 312.8 7.2 312 9.8
2002-04-25 07:58:40 51°14.39 2°55.041 313.7 7.4 312.7 10
2002-04-25 07:58:45 51°14.397 2°55.029 315.2 7.7 313.7 9.7
2002-04-25 07:58:50 51°14.405 2°55.017 316.5 7.8 314.7 10.2
2002-04-25 07:58:55 51°14.414 2°55.004 316.7 8.1 315.6 10.1
2002-04-25 07:59:00 51°14.422 2°54.991 319 8.4 315.9 9.9
2002-04-25 07:59:05 51°14.432 2°54.978 321.5 8.9 318.3 10
2002-04-25 07:59:10 51°14.442 2°54.964 321.7 9.2 319.1 9.9
2002-04-25 07:59:15 51°14.452 2°54.95 320.8 9.5 318.9 9.7
2002-04-25 07:59:20 51°14.462 2°54.936 320.3 9.7 318.3 9.8
2002-04-25 07:59:25 51°14.472 2°54.921 320.7 9.9 318 9.8
2002-04-25 07:59:30 51°14.483 2°54.906 320.5 10.1 317.8 9.7
2002-04-25 07:59:35 51°14.493 2°54.89 320.2 10.2 317.3 9.8
2002-04-25 07:59:40 51°14.503 2°54.875 319.7 10.3 316.9 9.7
2002-04-25 07:59:45 51°14.514 2°54.858 319.5 10.4 316.4 9.4
2002-04-25 07:59:50 51°14.524 2°54.842 319.5 10.4 316 9.8
2002-04-25 07:59:55 51°14.535 2°54.826 320 10.5 316 9.7
2002-04-25 08:00:00 51°14.546 2°54.81 320.5 10.6 316.5 9.7
2002-04-25 08:00:05 51°14.557 2°54.794 321.5 10.6 317.2 9.4
2002-04-25 08:00:10 51°14.568 2°54.778 321.3 10.7 317.8 9.7
2002-04-25 08:00:15 51°14.578 2°54.762 320 10.7 317.2 9.3
2002-04-25 08:00:20 51°14.589 2°54.746 320.8 10.7 317.1 9.6
2002-04-25 08:00:25 51°14.601 2°54.732 325 10.6 319.3 9.4
2002-04-25 08:00:30 51°14.613 2°54.719 329.5 10.6 322.4 9.2
2002-04-25 08:00:35 51°14.625 2°54.706 331.3 10.5 326.2 9.5
2002-04-25 08:00:40 51°14.637 2°54.693 331.3 10.6 326.9 9.6
2002-04-25 08:00:45 51°14.65 2°54.68 329.7 10.6 326.3 9.5
2002-04-25 08:00:50 51°14.662 2°54.666 328.7 10.7 325.9 9.4
2002-04-25 08:00:55 51°14.674 2°54.654 332.2 10.6 327.6 9.5
2002-04-25 08:01:00 51°14.688 2°54.646 340.5 10.4 332.5 9.6
2002-04-25 08:01:05 51°14.702 2°54.641 348.3 10.2 343.9 9.5
2002-04-25 08:01:10 51°14.716 2°54.639 356.3 10.2 350.1 9.5
2002-04-25 08:01:15 51°14.73 2°54.639 3.2 10.1 357.6 9.6
2002-04-25 08:01:20 51°14.744 2°54.642 10.3 10.1 2.6 9.6
2002-04-25 08:01:25 51°14.757 2°54.647 14 10.1 9.3 9.4
2002-04-25 08:01:30 51°14.771 2°54.65 14.3 10.1 10.5 9.5
2002-04-25 08:01:35 51°14.785 2°54.656 15 10.2 11.9 9.5
2002-04-25 08:01:40 51°14.799 2°54.66 15.2 10.3 11.7 9.4
2002-04-25 08:01:45 51°14.813 2°54.665 16 10.3 12.2 9.4
2002-04-25 08:01:50 51°14.827 2°54.67 16.3 10.4 12.8 9.4
2002-04-25 08:01:55 51°14.842 2°54.675 15.5 10.5 12.3 -999
2002-04-25 08:02:01 51°14.859 2°54.68 14.5 10.5 11.1 -999
2002-04-25 08:02:06 51°14.873 2°54.684 13.3 10.5 9.9 -999
2002-04-25 08:02:10 51°14.885 2°54.687 12.7 10.6 9.3 9.3
2002-04-25 08:02:15 51°14.899 2°54.691 12.7 10.6 9.3 9.2
2002-04-25 08:02:20 51°14.914 2°54.694 11.5 10.6 8.9 9.1
2002-04-25 08:02:25 51°14.928 2°54.698 12.7 10.6 9.5 8.9
2002-04-25 08:02:31 51°14.946 2°54.704 14.5 10.6 10 9.1
2002-04-25 08:02:35 51°14.957 2°54.708 16.7 10.6 12.6 9
2002-04-25 08:02:40 51°14.971 2°54.714 16.2 10.6 13.3 8.6
2002-04-25 08:02:45 51°14.985 2°54.719 16.5 10.6 13.4 8.7
2002-04-25 08:02:51 51°15.003 2°54.726 16.5 10.5 13.3 8.6
2002-04-25 08:02:55 51°15.014 2°54.73 16.2 10.5 13.8 8.4
2002-04-25 08:03:00 51°15.028 2°54.735 16.2 10.6 13.1 8.5
2002-04-25 08:03:05 51°15.042 2°54.741 15.8 10.6 13 8.4
2002-04-25 08:03:10 51°15.057 2°54.745 15.2 10.5 12 8.2
2002-04-25 08:03:15 51°15.071 2°54.75 15.7 10.5 12.1 8.3
2002-04-25 08:03:20 51°15.085 2°54.755 15.5 10.5 12 8
2002-04-25 08:03:25 51°15.099 2°54.76 16 10.5 12.6 8.1
2002-04-25 08:03:31 51°15.116 2°54.767 17.2 10.5 13.4 8.3
2002-04-25 08:03:35 51°15.127 2°54.771 16.8 10.4 13.7 8
2002-04-25 08:03:40 51°15.141 2°54.777 17.7 10.4 14.3 12.7
2002-04-25 08:03:45 51°15.156 2°54.783 18.3 10.5 14.6 8.1
2002-04-25 08:03:50 51°15.17 2°54.789 18.8 10.5 15.2 8.3
2002-04-25 08:03:55 51°15.184 2°54.795 18 10.5 14.8 7.9
2002-04-25 08:04:01 51°15.201 2°54.801 16.8 10.5 14.4 8.1
2002-04-25 08:04:05 51°15.212 2°54.806 15.8 10.5 13.2 8
2002-04-25 08:04:10 51°15.226 2°54.811 16.5 10.5 12.9 8.2
2002-04-25 08:04:15 51°15.24 2°54.816 16.7 10.6 13.4 8.4
2002-04-25 08:04:20 51°15.255 2°54.822 17.5 10.5 14.2 8.2
2002-04-25 08:04:25 51°15.269 2°54.829 18.7 10.5 15.4 8.5
2002-04-25 08:04:30 51°15.283 2°54.836 20 10.6 16.5 8.5
2002-04-25 08:04:35 51°15.297 2°54.843 21.7 10.6 18.2 8
2002-04-25 08:04:40 51°15.311 2°54.851 22.5 10.6 19 7.5
2002-04-25 08:04:45 51°15.324 2°54.858 22.2 10.5 18.8 8.4
2002-04-25 08:04:50 51°15.338 2°54.867 21.8 10.5 19.2 8.6
2002-04-25 08:04:55 51°15.352 2°54.873 19.7 10.6 17.5 8.6
2002-04-25 08:05:00 51°15.366 2°54.88 20.5 10.6 17.3 8.5
2002-04-25 08:05:05 51°15.38 2°54.887 20.3 10.5 17.9 8.4
2002-04-25 08:05:10 51°15.394 2°54.896 23 10.6 19.2 8.7
2002-04-25 08:05:15 51°15.408 2°54.904 24.7 10.6 20.7 8.6
2002-04-25 08:05:20 51°15.421 2°54.914 25.5 10.6 22.9 8.7
2002-04-25 08:05:25 51°15.435 2°54.923 25.8 10.6 23.3 8.9
2002-04-25 08:05:31 51°15.45 2°54.936 29.3 10.6 25.7 9
2002-04-25 08:05:35 51°15.46 2°54.945 32.8 10.6 29.7 9
2002-04-25 08:05:40 51°15.472 2°54.959 36.5 10.5 33.2 9.1
2002-04-25 08:05:45 51°15.484 2°54.973 40.7 10.5 37.4 8.9
2002-04-25 08:05:50 51°15.494 2°54.99 44.2 10.6 40.9 9
2002-04-25 08:05:55 51°15.506 2°55.005 43.8 10.6 41.6 9
2002-04-25 08:06:00 51°15.516 2°55.021 44.8 10.5 43 9
2002-04-25 08:06:05 51°15.528 2°55.035 41.7 10.5 40.8 9.1
2002-04-25 08:06:10 51°15.539 2°55.05 40.7 10.5 40 8.8
2002-04-25 08:06:15 51°15.55 2°55.064 39.8 10.5 38 9
2002-04-25 08:06:20 51°15.562 2°55.079 40.3 10.6 38 8.8
2002-04-25 08:06:25 51°15.573 2°55.094 41.8 10.6 39.2 9.1
2002-04-25 08:06:30 51°15.584 2°55.109 43.3 10.6 40.6 9.2
2002-04-25 08:06:35 51°15.595 2°55.125 44.7 10.6 42.5 9.1
2002-04-25 08:06:40 51°15.606 2°55.141 43.2 10.6 42 9.1
2002-04-25 08:06:45 51°15.617 2°55.157 44.3 10.6 42.9 9
2002-04-25 08:06:50 51°15.628 2°55.172 44.2 10.6 42.4 9.5
2002-04-25 08:06:55 51°15.639 2°55.188 44 10.6 42.2 9.2
2002-04-25 08:07:00 51°15.65 2°55.203 43.3 10.6 41.4 9.1
2002-04-25 08:07:05 51°15.661 2°55.22 43.5 10.6 42 9.2
2002-04-25 08:07:10 51°15.672 2°55.234 42.5 10.6 41.1 9.4
2002-04-25 08:07:15 51°15.683 2°55.25 41.7 10.5 40.3 9.1
2002-04-25 08:07:20 51°15.694 2°55.264 41.2 10.5 39.4 9.1
2002-04-25 08:07:25 51°15.705 2°55.279 41.5 10.5 39.9 9.2
2002-04-25 08:07:31 51°15.719 2°55.297 41.2 10.5 39.8 8.9
2002-04-25 08:07:35 51°15.727 2°55.309 43.3 10.4 41 9.2
2002-04-25 08:07:40 51°15.738 2°55.325 43.3 10.4 41.9 9.1
2002-04-25 08:07:45 51°15.748 2°55.341 46.3 10.4 44.5 8.9
2002-04-25 08:07:50 51°15.759 2°55.357 45.3 10.4 43.7 9.2
2002-04-25 08:07:55 51°15.769 2°55.374 47.3 10.4 45.4 9.1
2002-04-25 08:08:00 51°15.779 2°55.39 47.2 10.4 45.4 9.2
2002-04-25 08:08:05 51°15.789 2°55.406 45.8 10.4 44.8 9.3
2002-04-25 08:08:11 51°15.802 2°55.424 44.3 10.4 43.4 9.3
2002-04-25 08:08:15 51°15.811 2°55.436 42.7 10.4 41.1 9.4
2002-04-25 08:08:20 51°15.823 2°55.45 39 10.4 38.7 9.4
2002-04-25 08:08:25 51°15.834 2°55.464 37.7 10.5 37 9.5
2002-04-25 08:08:30 51°15.846 2°55.478 37.7 10.5 36.4 9.4
2002-04-25 08:08:35 51°15.858 2°55.492 38.8 10.5 36.6 9.4
2002-04-25 08:08:40 51°15.869 2°55.507 41 10.5 38.9 9.4
2002-04-25 08:08:45 51°15.88 2°55.523 44 10.5 41.7 9.4
2002-04-25 08:08:50 51°15.889 2°55.54 47.3 10.5 44.5 9.4
2002-04-25 08:08:55 51°15.899 2°55.557 48.8 10.5 47.1 9.5
2002-04-25 08:09:00 51°15.909 2°55.574 48.7 10.5 47.1 9.5
2002-04-25 08:09:05 51°15.919 2°55.59 47.7 10.5 46.4 9.5
2002-04-25 08:09:10 51°15.93 2°55.607 46.5 10.5 45.3 9.7
2002-04-25 08:09:15 51°15.94 2°55.623 46.5 10.6 45 9.8
2002-04-25 08:09:20 51°15.951 2°55.64 45.7 10.6 44.8 9.4
2002-04-25 08:09:25 51°15.961 2°55.657 47.7 10.6 45.8 9.5
2002-04-25 08:09:31 51°15.973 2°55.676 44.5 10.6 44.3 9.5
2002-04-25 08:09:35 51°15.981 2°55.69 47.8 10.5 45.6 9.2
2002-04-25 08:09:40 51°15.992 2°55.706 46.5 10.5 45.3 9.5
2002-04-25 08:09:45 51°16.001 2°55.724 48.5 10.6 46.8 9.5
2002-04-25 08:09:51 51°16.014 2°55.743 47.3 10.6 46.2 9.5
2002-04-25 08:09:55 51°16.022 2°55.756 46 10.6 44.9 9.6
2002-04-25 08:10:00 51°16.033 2°55.773 45.2 10.6 44 9.7
2002-04-25 08:10:05 51°16.044 2°55.788 43.7 10.6 42.3 9.7
2002-04-25 08:10:10 51°16.055 2°55.803 42.7 10.6 41.7 9.8
2002-04-25 08:10:15 51°16.067 2°55.818 41.5 10.6 40.2 9.8
2002-04-25 08:10:20 51°16.078 2°55.833 39.7 10.6 39.1 9.4
2002-04-25 08:10:25 51°16.089 2°55.848 41.3 10.6 40.2 9.9
2002-04-25 08:10:31 51°16.103 2°55.866 40.3 10.6 39.4 9.8
2002-04-25 08:10:35 51°16.111 2°55.88 44.3 10.6 42.3 9.8
2002-04-25 08:10:40 51°16.122 2°55.895 45.2 10.6 42.6 9.7
2002-04-25 08:10:45 51°16.131 2°55.913 48.2 10.6 46.5 9.7
2002-04-25 08:10:50 51°16.141 2°55.93 49.7 10.6 47.3 9.5
2002-04-25 08:10:55 51°16.151 2°55.949 51.7 10.8 49.5 9.8
2002-04-25 08:11:00 51°16.162 2°55.966 48.5 11 48.1 9.7
2002-04-25 08:11:05 51°16.172 2°55.985 49.2 11.4 47.4 9.8
2002-04-25 08:11:10 51°16.185 2°56.002 45.5 11.6 44.5 9.9
2002-04-25 08:11:15 51°16.196 2°56.021 45.2 11.9 43.4 9.7
2002-04-25 08:11:20 51°16.21 2°56.038 41.5 12.1 40.7 9.8
2002-04-25 08:11:25 51°16.223 2°56.056 42.2 12.4 40.3 9.9
2002-04-25 08:11:30 51°16.236 2°56.075 43.7 12.5 41.1 9.8
2002-04-25 08:11:35 51°16.248 2°56.095 47 12.6 44.2 9.7
2002-04-25 08:11:40 51°16.26 2°56.116 48.7 12.7 45.9 9.8
2002-04-25 08:11:45 51°16.271 2°56.137 51.2 12.7 48.9 10
2002-04-25 08:11:50 51°16.282 2°56.16 53.7 12.8 51.1 10
2002-04-25 08:11:55 51°16.292 2°56.183 56 12.9 54.5 9.6
2002-04-25 08:12:00 51°16.301 2°56.208 61.2 12.9 58.4 9.9
2002-04-25 08:12:05 51°16.31 2°56.233 62.5 13 60.3 9.9
2002-04-25 08:12:10 51°16.319 2°56.259 61.5 13.2 60.7 10
2002-04-25 08:12:15 51°16.328 2°56.283 62.5 13.1 61.1 10.1
2002-04-25 08:12:20 51°16.336 2°56.309 65.2 13 62.6 9.9
2002-04-25 08:12:25 51°16.345 2°56.335 63 13.2 61.6 9.6
2002-04-25 08:12:30 51°16.354 2°56.361 62.8 13.3 61.3 9.8
2002-04-25 08:12:35 51°16.363 2°56.386 61.5 13.3 60.2 9.8
2002-04-25 08:12:40 51°16.372 2°56.411 61.2 13.3 59.8 9.9
2002-04-25 08:12:45 51°16.381 2°56.438 63.7 13.3 61.5 9.8
2002-04-25 08:12:50 51°16.389 2°56.464 65.8 13.4 63.4 9.8
2002-04-25 08:12:55 51°16.396 2°56.492 69.7 13.4 66.6 9.8
2002-04-25 08:13:00 51°16.401 2°56.52 73.2 13.3 69.9 9.8
2002-04-25 08:13:05 51°16.407 2°56.547 74.8 13.1 72.5 9.8
2002-04-25 08:13:10 51°16.412 2°56.574 73.8 12.9 72.1 9.7
2002-04-25 08:13:15 51°16.418 2°56.598 71.8 12.3 70.5 9.8
2002-04-25 08:13:20 51°16.425 2°56.621 68 11.9 68.6 9.7
2002-04-25 08:13:25 51°16.431 2°56.643 65.5 10.9 64.8 10
2002-04-25 08:13:30 51°16.438 2°56.662 63 10.4 62.6 10
2002-04-25 08:13:35 51°16.444 2°56.681 64 9.8 62.5 10
2002-04-25 08:13:40 51°16.449 2°56.699 64.3 9.5 62.7 9.9
2002-04-25 08:13:45 51°16.454 2°56.717 67.5 8.8 65.4 10
2002-04-25 08:13:51 51°16.459 2°56.736 69.8 8.4 67.7 10.1
2002-04-25 08:13:55 51°16.461 2°56.749 73.8 7.8 71 9.9
2002-04-25 08:14:00 51°16.464 2°56.764 76.2 7.3 73.1 9.8
2002-04-25 08:14:05 51°16.466 2°56.778 77.7 6.7 74.8 10
2002-04-25 08:14:10 51°16.468 2°56.791 76.5 6.4 74.9 10
2002-04-25 08:14:15 51°16.471 2°56.803 72.3 5.9 71.9 10
2002-04-25 08:14:20 51°16.474 2°56.814 67.2 5.6 68.8 10.1
2002-04-25 08:14:25 51°16.477 2°56.824 63.2 5.1 64.3 10.1
2002-04-25 08:14:30 51°16.48 2°56.833 60.2 4.8 62.2 10
2002-04-25 08:14:35 51°16.484 2°56.841 57.3 4.5 58.9 10
2002-04-25 08:14:40 51°16.487 2°56.849 55.3 4.4 57.9 9.7
2002-04-25 08:14:45 51°16.49 2°56.856 53 4.1 54.9 10
2002-04-25 08:14:50 51°16.493 2°56.862 50.8 3.9 53.7 10
2002-04-25 08:14:55 51°16.496 2°56.869 49.2 3.7 52.1 10
2002-04-25 08:15:00 51°16.5 2°56.874 47.5 3.5 50.8 10.1
2002-04-25 08:15:05 51°16.503 2°56.88 45.7 3.3 49 10.1
2002-04-25 08:15:10 51°16.505 2°56.885 43.8 3.2 48.1 10.1
2002-04-25 08:15:15 51°16.508 2°56.89 42.7 3.1 46.3 10.1
2002-04-25 08:15:20 51°16.512 2°56.895 41.2 3 45.3 10
2002-04-25 08:15:25 51°16.515 2°56.899 39.7 2.9 43.6 10
2002-04-25 08:15:30 51°16.518 2°56.903 38.5 2.9 42.6 10
2002-04-25 08:15:35 51°16.521 2°56.907 37.2 2.8 40.3 10
2002-04-25 08:15:40 51°16.523 2°56.91 36.3 2.7 40.5 10
2002-04-25 08:15:45 51°16.526 2°56.914 34.2 2.6 38.3 10
2002-04-25 08:15:51 51°16.53 2°56.918 31.7 2.6 37.2 10.1
2002-04-25 08:15:55 51°16.532 2°56.92 28.3 2.5 32.8 10.1
2002-04-25 08:16:00 51°16.535 2°56.923 25 2.5 30.5 10.1
2002-04-25 08:16:05 51°16.538 2°56.925 22 2.6 27 10
2002-04-25 08:16:10 51°16.542 2°56.928 20.7 2.8 25.6 10
2002-04-25 08:16:15 51°16.547 2°56.932 20.5 3.4 23.9 10
2002-04-25 08:16:20 51°16.552 2°56.935 21.8 3.9 23.7 9.6
2002-04-25 08:16:25 51°16.558 2°56.94 23.7 4.4 25.2 10
2002-04-25 08:16:30 51°16.564 2°56.945 25.7 4.8 26.5 10
2002-04-25 08:16:35 51°16.571 2°56.951 28.3 5.3 28.4 10
2002-04-25 08:16:40 51°16.578 2°56.958 32.3 5.8 30.8 9.8
2002-04-25 08:16:45 51°16.586 2°56.968 37.7 6.8 35.9 9.9
2002-04-25 08:16:50 51°16.594 2°56.979 43.7 7.4 37.5 10
2002-04-25 08:16:55 51°16.603 2°56.994 45.7 8.7 42.9 9.7
2002-04-25 08:17:00 51°16.614 2°57.008 44.2 9.4 42.3 9.9
2002-04-25 08:17:05 51°16.625 2°57.023 43.5 10.3 41.9 9.9
2002-04-25 08:17:10 51°16.636 2°57.04 42.7 10.8 41.6 10
2002-04-25 08:17:15 51°16.648 2°57.057 44.8 11.4 42.3 9.8
2002-04-25 08:17:20 51°16.66 2°57.075 45.5 11.7 43.2 9.9
2002-04-25 08:17:25 51°16.671 2°57.094 48.7 12 45.9 9.8
2002-04-25 08:17:30 51°16.682 2°57.116 53.7 12.2 49.2 9.6
2002-04-25 08:17:35 51°16.691 2°57.139 58.3 12.4 54.6 9.9
2002-04-25 08:17:40 51°16.702 2°57.16 55.3 12.5 53.7 9.8
2002-04-25 08:17:45 51°16.713 2°57.182 53 12.6 51.3 9.8
2002-04-25 08:17:50 51°16.725 2°57.203 50.5 12.7 48.8 9.8
2002-04-25 08:17:55 51°16.736 2°57.226 54.5 12.8 51 9.8
2002-04-25 08:18:00 51°16.746 2°57.249 57 12.8 52.7 9.6
2002-04-25 08:18:05 51°16.757 2°57.271 54.7 12.9 52.8 9.7
2002-04-25 08:18:10 51°16.77 2°57.291 48.3 12.8 48.2 9.5
2002-04-25 08:18:15 51°16.782 2°57.312 48.3 12.8 45.7 9.6
2002-04-25 08:18:20 51°16.797 2°57.328 40.7 12.8 41.1 9.5
2002-04-25 08:18:25 51°16.81 2°57.347 41 12.9 39.2 9.5
2002-04-25 08:18:31 51°16.828 2°57.367 38.5 12.9 36.9 9.3
2002-04-25 08:18:35 51°16.839 2°57.382 40.5 13.1 38 9.6
2002-04-25 08:18:40 51°16.853 2°57.4 41.7 13.1 38.8 9.5
2002-04-25 08:18:45 51°16.866 2°57.421 45.5 13.1 42.6 9.2
2002-04-25 08:18:51 51°16.88 2°57.447 50 13.2 46.1 9.1
2002-04-25 08:18:55 51°16.888 2°57.467 56.2 13.2 53 9
2002-04-25 08:19:00 51°16.898 2°57.491 60.8 13.1 56.8 9.3
2002-04-25 08:19:05 51°16.906 2°57.517 65.3 13 62.3 9.2
2002-04-25 08:19:10 51°16.914 2°57.543 65.3 13.1 63 9.3
2002-04-25 08:19:15 51°16.923 2°57.568 62.8 13.2 61 9.3
2002-04-25 08:19:20 51°16.933 2°57.593 61 13.3 59.4 9.3
2002-04-25 08:19:25 51°16.943 2°57.618 60.2 13.2 58 9.2
2002-04-25 08:19:30 51°16.953 2°57.642 59.5 13.1 57.3 9.3
2002-04-25 08:19:35 51°16.963 2°57.666 58.3 13.1 56.3 9.1
2002-04-25 08:19:40 51°16.973 2°57.69 56.3 13.2 55.2 9
2002-04-25 08:19:45 51°16.984 2°57.714 57.2 13.3 54.7 9
2002-04-25 08:19:51 51°16.996 2°57.743 59 13.2 56 8.7
2002-04-25 08:19:55 51°17.004 2°57.762 58.7 13.2 56 9
2002-04-25 08:20:00 51°17.015 2°57.786 56.3 13.2 54.8 9.1
2002-04-25 08:20:05 51°17.027 2°57.809 53.7 13.3 52 9
2002-04-25 08:20:10 51°17.039 2°57.832 52.2 13.2 50.7 -999
2002-04-25 08:20:15 51°17.05 2°57.855 54 13.2 51.5 8.9
2002-04-25 08:20:20 51°17.061 2°57.878 56.2 13.2 52.5 8.9
2002-04-25 08:20:25 51°17.071 2°57.903 57.3 13.3 54.1 8.7
2002-04-25 08:20:30 51°17.083 2°57.926 55.5 13.3 53.5 8.9
2002-04-25 08:20:36 51°17.097 2°57.952 53 13.2 51.5 8.7
2002-04-25 08:20:40 51°17.106 2°57.971 53 13.1 51 8.9
2002-04-25 08:20:45 51°17.117 2°57.994 54.7 13.2 51.7 8.9
2002-04-25 08:20:50 51°17.127 2°58.018 56.5 13.2 53.5 8.5
2002-04-25 08:20:55 51°17.137 2°58.042 59.3 13.2 56.7 8.8
2002-04-25 08:21:00 51°17.146 2°58.068 61.8 13.2 58.9 8.9
2002-04-25 08:21:05 51°17.154 2°58.094 64.5 13.2 61.9 8.9
2002-04-25 08:21:11 51°17.164 2°58.125 66.3 13.2 63.6 8.9
2002-04-25 08:21:15 51°17.17 2°58.147 67.5 13.2 65 8.6
2002-04-25 08:21:20 51°17.178 2°58.173 67 13.3 64.8 8.9
2002-04-25 08:21:25 51°17.186 2°58.199 65.5 13.2 63.7 8.9
2002-04-25 08:21:30 51°17.194 2°58.225 65 13.1 63 8.9
2002-04-25 08:21:35 51°17.202 2°58.251 65.2 13.2 62.6 8.7
2002-04-25 08:21:40 51°17.211 2°58.277 63.8 13.2 62.2 8.8
2002-04-25 08:21:45 51°17.22 2°58.303 62.5 13.4 60.8 8.8
2002-04-25 08:21:50 51°17.23 2°58.328 61.7 13.3 60.1 8.9
2002-04-25 08:21:55 51°17.238 2°58.354 65.3 13.2 62 -999
2002-04-25 08:22:00 51°17.246 2°58.38 66 13.2 63.3 8.6
2002-04-25 08:22:05 51°17.254 2°58.406 66 13.2 63.9 8.5
2002-04-25 08:22:10 51°17.262 2°58.433 65.8 13.2 63.9 8.6
2002-04-25 08:22:15 51°17.27 2°58.459 66.5 13.3 64.2 8.8
2002-04-25 08:22:20 51°17.278 2°58.486 66.5 13.3 64.3 8.8
2002-04-25 08:22:25 51°17.285 2°58.513 67.8 13.3 65.7 8.7
2002-04-25 08:22:31 51°17.294 2°58.545 68.7 13.3 66.3 8.8
2002-04-25 08:22:35 51°17.3 2°58.567 69 13.4 66.8 8.8
2002-04-25 08:22:40 51°17.308 2°58.594 68.3 13.4 66.5 8.7
2002-04-25 08:22:45 51°17.315 2°58.621 68.7 13.3 66.6 8.8
2002-04-25 08:22:50 51°17.323 2°58.647 67.3 13.2 65.5 8.6
2002-04-25 08:22:55 51°17.331 2°58.673 65.5 13.2 63.7 8.7
2002-04-25 08:23:00 51°17.34 2°58.699 63.7 13.3 62.1 8.7
2002-04-25 08:23:05 51°17.348 2°58.725 64.3 13.2 61.8 8.6
2002-04-25 08:23:10 51°17.357 2°58.751 63.7 13.2 61.4 8.3
2002-04-25 08:23:15 51°17.366 2°58.777 64.5 13.3 62.2 8.6
2002-04-25 08:23:20 51°17.374 2°58.804 65.5 13.4 63.5 8.6
2002-04-25 08:23:26 51°17.383 2°58.836 66.7 13.4 64.3 8.6
2002-04-25 08:23:30 51°17.388 2°58.858 68.7 13.4 66.1 8.6
2002-04-25 08:23:35 51°17.396 2°58.885 69.7 13.4 67.6 8.4
2002-04-25 08:23:40 51°17.403 2°58.913 70 13.4 68.2 8.6
2002-04-25 08:23:45 51°17.41 2°58.94 69.7 13.3 67.8 8.6
2002-04-25 08:23:50 51°17.417 2°58.967 69.5 13.2 67.6 8.5
2002-04-25 08:23:55 51°17.424 2°58.993 68 13.2 66.4 8.7
2002-04-25 08:24:00 51°17.432 2°59.019 66.5 13.2 65.1 8.7
2002-04-25 08:24:05 51°17.441 2°59.045 64.5 13.2 62.8 8.6
2002-04-25 08:24:11 51°17.452 2°59.075 62.5 13.2 60.9 8.6
2002-04-25 08:24:15 51°17.46 2°59.095 60.3 13.2 58.8 8.5
2002-04-25 08:24:20 51°17.469 2°59.12 61.2 13.2 59.1 8.6
2002-04-25 08:24:25 51°17.477 2°59.146 65.3 13.1 62.3 8.6
2002-04-25 08:24:30 51°17.484 2°59.173 68.8 13.2 65.5 8.5
2002-04-25 08:24:36 51°17.492 2°59.206 70.3 13.3 68.6 8.6
2002-04-25 08:24:40 51°17.497 2°59.228 71.3 13.2 69.4 8.7
2002-04-25 08:24:45 51°17.503 2°59.255 72.3 13 70.2 8.5
2002-04-25 08:24:50 51°17.509 2°59.282 72 13.1 70.2 8.6
2002-04-25 08:24:55 51°17.517 2°59.309 69.2 13.3 67.8 8.7
2002-04-25 08:25:00 51°17.524 2°59.336 68.5 13.4 67.1 8.6
2002-04-25 08:25:05 51°17.531 2°59.363 68.3 13.1 66.4 8.5
2002-04-25 08:25:10 51°17.538 2°59.39 69.5 13 67 8.6
2002-04-25 08:25:15 51°17.546 2°59.416 68.3 13.1 66.4 8.8
2002-04-25 08:25:20 51°17.554 2°59.443 65 13.3 64.3 8.6
2002-04-25 08:25:25 51°17.563 2°59.468 63.3 13.3 62.3 8.5
2002-04-25 08:25:30 51°17.571 2°59.494 65.3 13.1 63 8.6
2002-04-25 08:25:35 51°17.579 2°59.52 65.7 13 63.1 8.4
2002-04-25 08:25:40 51°17.587 2°59.546 65.5 13.1 63.3 8.3
2002-04-25 08:25:45 51°17.596 2°59.571 63.8 13.2 62.3 8.3
2002-04-25 08:25:50 51°17.604 2°59.597 63.8 13.2 61.8 8.3
2002-04-25 08:25:55 51°17.613 2°59.622 63.3 13.2 61.3 8.3
2002-04-25 08:26:01 51°17.623 2°59.654 64.2 13.2 61.7 8.4
2002-04-25 08:26:05 51°17.63 2°59.675 64.8 13.2 62.8 8.5
2002-04-25 08:26:11 51°17.64 2°59.706 64.3 13.3 62.8 8.3
2002-04-25 08:26:15 51°17.647 2°59.727 64 13.3 62.5 8.3
2002-04-25 08:26:20 51°17.655 2°59.752 64.2 13.3 62.5 8.3
2002-04-25 08:26:26 51°17.666 2°59.783 63.7 13.3 61.6 8.3
2002-04-25 08:26:31 51°17.676 2°59.809 62.5 13.3 60.5 -999
2002-04-25 08:26:35 51°17.684 2°59.829 60 13.3 59.1 8.2
2002-04-25 08:26:40 51°17.693 2°59.854 60 13.3 58.4 8.5
2002-04-25 08:26:45 51°17.702 2°59.879 62 13.2 59.6 8.4
2002-04-25 08:26:50 51°17.711 2°59.905 64.5 13.2 61.4 8.3
2002-04-25 08:26:55 51°17.719 2°59.932 65.3 13.3 63.3 8.6
2002-04-25 08:27:00 51°17.727 2°59.959 66.2 13.4 64.4 8.5
2002-04-25 08:27:05 51°17.734 2°59.985 67 13.4 65.4 8.2
2002-04-25 08:27:11 51°17.742 3°0.018 69.5 13.3 67.1 8.8
2002-04-25 08:27:15 51°17.748 3°0.04 70.3 13.3 67.9 8.5
2002-04-25 08:27:20 51°17.755 3°0.067 69 13.4 67.6 8.5
2002-04-25 08:27:26 51°17.765 3°0.099 67.2 13.4 65.8 8.9
2002-04-25 08:27:30 51°17.771 3°0.121 66.7 13.4 65.2 8.7
2002-04-25 08:27:35 51°17.779 3°0.148 66.5 13.4 65 8.4
2002-04-25 08:27:40 51°17.787 3°0.174 66.5 13.4 64.8 8.4
2002-04-25 08:27:45 51°17.793 3°0.202 69 13.4 66.9 8.4
2002-04-25 08:27:51 51°17.802 3°0.235 69.8 13.4 67.5 8.4
2002-04-25 08:27:55 51°17.806 3°0.257 72.5 13.3 70.2 8.4
2002-04-25 08:28:01 51°17.814 3°0.29 73 13.3 71 8.6
2002-04-25 08:28:05 51°17.819 3°0.312 73.2 13.2 70.9 8.4
2002-04-25 08:28:10 51°17.825 3°0.339 72 13.2 70.2 8.6
2002-04-25 08:28:15 51°17.833 3°0.366 69 13.3 67 8.3
2002-04-25 08:28:20 51°17.841 3°0.393 66.2 13.4 65 8.3
2002-04-25 08:28:25 51°17.85 3°0.419 64.3 13.4 63.1 8.5
2002-04-25 08:28:30 51°17.857 3°0.446 65.5 13.3 63.7 -999
2002-04-25 08:28:35 51°17.865 3°0.472 67.5 13.3 65.4 8.7
2002-04-25 08:28:40 51°17.871 3°0.5 70.3 13.3 67.7 8.6
2002-04-25 08:28:45 51°17.878 3°0.528 71.8 13.4 69.8 8.6
2002-04-25 08:28:50 51°17.884 3°0.556 73.2 13.4 70.8 8.6
2002-04-25 08:28:55 51°17.89 3°0.584 73.2 13.4 71.4 8.6
2002-04-25 08:29:00 51°17.896 3°0.612 72.5 13.3 71 8.7
2002-04-25 08:29:05 51°17.903 3°0.639 70.3 13.3 69.4 8.3
2002-04-25 08:29:11 51°17.911 3°0.672 69.5 13.3 68.4 8.4
2002-04-25 08:29:15 51°17.917 3°0.693 69.3 13.3 67.5 8.4
2002-04-25 08:29:20 51°17.925 3°0.72 68.8 13.4 67.2 8.5
2002-04-25 08:29:25 51°17.931 3°0.747 68.5 13.3 67 8.7
2002-04-25 08:29:31 51°17.94 3°0.779 69.2 13.3 67.5 8.3
2002-04-25 08:29:36 51°17.946 3°0.807 70.3 13.3 68.6 8.5
2002-04-25 08:29:40 51°17.952 3°0.829 71.8 13.4 69.3 8.6
2002-04-25 08:29:45 51°17.958 3°0.858 72.5 13.4 70.6 8.3
2002-04-25 08:29:50 51°17.964 3°0.886 72.3 13.4 70.7 8.5
2002-04-25 08:29:55 51°17.97 3°0.914 73.8 13.3 71.5 8.5
2002-04-25 08:30:00 51°17.975 3°0.942 76 13.3 73 8.7
2002-04-25 08:30:05 51°17.98 3°0.971 76.2 13.4 74.3 8.7
2002-04-25 08:30:11 51°17.986 3°1.005 75.7 13.4 74 8.6
2002-04-25 08:30:15 51°17.992 3°1.026 73 13.3 70.9 8.7
2002-04-25 08:30:20 51°17.999 3°1.053 69.5 13.4 68.7 8.5
2002-04-25 08:30:25 51°18.007 3°1.08 66.8 13.4 65.9 8.8
2002-04-25 08:30:30 51°18.014 3°1.107 68.3 13.4 65.9 8.7
2002-04-25 08:30:35 51°18.021 3°1.134 69 13.3 67 9
2002-04-25 08:30:40 51°18.027 3°1.162 71.7 13.3 68.5 9.2
2002-04-25 08:30:45 51°18.034 3°1.189 71.5 13.1 69.4 8.7
2002-04-25 08:30:51 51°18.041 3°1.22 71 12.8 69.4 8.6
2002-04-25 08:30:56 51°18.047 3°1.245 71.2 12.5 69.4 8.9
2002-04-25 08:31:00 51°18.052 3°1.265 70.5 12.3 68.9 8.6
2002-04-25 08:31:05 51°18.059 3°1.29 69.2 12 67.7 9.1
2002-04-25 08:31:11 51°18.067 3°1.318 68.5 11.8 67 9.1
2002-04-25 08:31:15 51°18.072 3°1.336 66.3 11.5 65.2 -999
2002-04-25 08:31:20 51°18.079 3°1.358 66.2 11.3 64.5 9.4
2002-04-25 08:31:25 51°18.086 3°1.38 65.2 11 63.5 9.2
2002-04-25 08:31:31 51°18.094 3°1.404 63.3 10.8 62.7 9.2
2002-04-25 08:31:35 51°18.099 3°1.419 62.7 10.1 61.5 9.2
2002-04-25 08:31:40 51°18.105 3°1.437 61.8 9.7 61.2 9.4
2002-04-25 08:31:45 51°18.111 3°1.453 60.3 8.9 59.7 9.4
2002-04-25 08:31:50 51°18.117 3°1.468 58.8 8.4 59 9.4
2002-04-25 08:31:55 51°18.123 3°1.481 57.2 7.7 57.2 9.2
2002-04-25 08:32:00 51°18.128 3°1.495 56.5 7.4 56.4 9.4
2002-04-25 08:32:06 51°18.134 3°1.509 55 6.8 55.9 9.5
2002-04-25 08:32:11 51°18.139 3°1.52 55.5 6.5 56.1 8.9
2002-04-25 08:32:15 51°18.143 3°1.529 56 6 56.4 9.5
2002-04-25 08:32:20 51°18.147 3°1.539 56.5 5.8 56.9 9.6
2002-04-25 08:32:25 51°18.151 3°1.549 57.2 5.4 57.7 9.5
2002-04-25 08:32:31 51°18.155 3°1.56 57.8 5.2 58.5 9.1
2002-04-25 08:32:35 51°18.158 3°1.567 58.5 4.9 59.4 9.6
2002-04-25 08:32:40 51°18.161 3°1.576 59.5 4.7 59.8 9.4
2002-04-25 08:32:45 51°18.164 3°1.585 60.7 4.5 60.9 9.5
2002-04-25 08:32:50 51°18.167 3°1.594 61.7 4.4 61.5 9.4
2002-04-25 08:32:55 51°18.169 3°1.602 62.7 4.2 62.8 9.5
2002-04-25 08:33:00 51°18.171 3°1.61 63.8 4.1 64.3 9.6
2002-04-25 08:33:05 51°18.173 3°1.618 64.8 3.9 65.7 9.6
2002-04-25 08:33:10 51°18.176 3°1.625 65.8 3.8 66.9 9.3
2002-04-25 08:33:15 51°18.177 3°1.632 67 3.7 68.4 9.3
2002-04-25 08:33:20 51°18.179 3°1.64 68 3.6 68.9 9.5
2002-04-25 08:33:25 51°18.18 3°1.647 69 3.5 70.4 9.2
2002-04-25 08:33:30 51°18.182 3°1.654 69.7 3.4 70.8 9.5
2002-04-25 08:33:35 51°18.184 3°1.661 70.5 3.4 72.4 9.5
2002-04-25 08:33:40 51°18.185 3°1.668 71 3.3 73 9.5
2002-04-25 08:33:45 51°18.186 3°1.675 71.8 3.2 73.5 9.3
2002-04-25 08:33:50 51°18.187 3°1.682 72.5 3.2 73.9 9.1
2002-04-25 08:33:55 51°18.189 3°1.688 73.2 3.2 74.3 9.5
2002-04-25 08:34:00 51°18.189 3°1.695 74 3.1 75.5 9.6
2002-04-25 08:34:05 51°18.191 3°1.702 73.8 3.1 75.6 9.5
2002-04-25 08:34:10 51°18.192 3°1.708 74.2 3 76.4 9.3
2002-04-25 08:34:15 51°18.193 3°1.714 74.5 3 76.5 9.5
2002-04-25 08:34:20 51°18.193 3°1.72 74.8 2.9 77.1 9.6
2002-04-25 08:34:25 51°18.195 3°1.726 75 2.9 76.4 9.5
2002-04-25 08:34:30 51°18.195 3°1.732 75 2.9 77.5 9.6
2002-04-25 08:34:35 51°18.196 3°1.738 75 2.8 78 9.5
2002-04-25 08:34:40 51°18.197 3°1.743 75.2 2.7 79.7 9.4
2002-04-25 08:34:45 51°18.197 3°1.749 75.7 2.5 79 9.3
2002-04-25 08:34:50 51°18.198 3°1.754 75.8 2.4 79.9 9.4
2002-04-25 08:34:55 51°18.198 3°1.758 75.3 2.2 80.7 9.4
2002-04-25 08:35:00 51°18.199 3°1.762 75.5 1.9 81.5 9.3
2002-04-25 08:35:05 51°18.199 3°1.764 75.5 1.4 84.8 9.5
2002-04-25 08:35:10 51°18.199 3°1.766 75.5 1.1 87.7 9.5
2002-04-25 08:35:15 51°18.199 3°1.768 76 0.9 93.2 9.5
2002-04-25 08:35:20 51°18.199 3°1.77 76.3 0.9 91.2 9.5
2002-04-25 08:35:25 51°18.199 3°1.773 76.5 0.9 89.5 9.6
2002-04-25 08:35:30 51°18.199 3°1.775 76.5 1 88.3 9.4
2002-04-25 08:35:35 51°18.199 3°1.777 76.5 1 88.8 9.5
2002-04-25 08:35:40 51°18.199 3°1.779 76.5 1 88.3 9.3
2002-04-25 08:35:45 51°18.199 3°1.781 76 1.1 88 9.2
2002-04-25 08:35:50 51°18.199 3°1.784 76 1.1 87.5 9.3
2002-04-25 08:35:55 51°18.199 3°1.787 76 1.1 88.2 9.2
2002-04-25 08:36:00 51°18.199 3°1.789 75.8 1.1 87 9.6
2002-04-25 08:36:05 51°18.2 3°1.792 75.7 1.2 86 9.5
2002-04-25 08:36:11 51°18.2 3°1.795 75.7 1.2 85.9 9.5
2002-04-25 08:36:15 51°18.2 3°1.797 75.7 1.2 85.8 9.5
2002-04-25 08:36:20 51°18.2 3°1.8 75.2 1.3 86.4 9.5
2002-04-25 08:36:25 51°18.2 3°1.803 74.8 1.3 86.9 9.5
2002-04-25 08:36:30 51°18.2 3°1.806 74.3 1.3 85.9 9.5
2002-04-25 08:36:35 51°18.2 3°1.809 73.7 1.3 81.8 9.5
2002-04-25 08:36:40 51°18.2 3°1.812 73.3 1.3 81.2 9.5
2002-04-25 08:36:45 51°18.201 3°1.815 72.7 1.4 81 9.4
2002-04-25 08:36:50 51°18.201 3°1.818 72.2 1.4 81.6 9.3
2002-04-25 08:36:55 51°18.201 3°1.821 71.3 1.4 81.2 9.5
2002-04-25 08:37:00 51°18.202 3°1.824 70.7 1.4 80.5 9.4
2002-04-25 08:37:05 51°18.202 3°1.827 69.8 1.4 79.4 9.2
2002-04-25 08:37:10 51°18.202 3°1.831 69.2 1.4 78.7 9.5
2002-04-25 08:37:15 51°18.203 3°1.834 68.7 1.5 79.2 9.5
2002-04-25 08:37:20 51°18.203 3°1.837 68.3 1.5 79.4 9.5
2002-04-25 08:37:26 51°18.204 3°1.841 68 1.5 80 9.3
2002-04-25 08:37:30 51°18.204 3°1.843 67.5 1.5 77.7 9.6
2002-04-25 08:37:35 51°18.205 3°1.847 66.7 1.5 77.2 9.4
2002-04-25 08:37:40 51°18.205 3°1.85 66.2 1.5 76.7 9.6
2002-04-25 08:37:45 51°18.206 3°1.853 65.7 1.5 76 9.6
2002-04-25 08:37:50 51°18.206 3°1.856 65.3 1.5 75.9 9.4
2002-04-25 08:37:55 51°18.207 3°1.86 64.8 1.5 75.4 9.4
2002-04-25 08:38:00 51°18.207 3°1.863 64.7 1.6 75.8 9.5
2002-04-25 08:38:05 51°18.208 3°1.866 64 1.6 74.9 9.6
2002-04-25 08:38:11 51°18.208 3°1.87 63.5 1.6 77.4 9.4
2002-04-25 08:38:15 51°18.209 3°1.873 62.8 1.6 74.8 9.6
2002-04-25 08:38:20 51°18.21 3°1.876 62.3 1.6 75.2 9.4
2002-04-25 08:38:25 51°18.21 3°1.88 61.7 1.6 72.3 9.2
2002-04-25 08:38:30 51°18.211 3°1.883 61 1.7 74 9.4
2002-04-25 08:38:35 51°18.212 3°1.886 60.3 1.6 72.7 9.3
2002-04-25 08:38:40 51°18.212 3°1.89 60.2 1.6 72.6 9.1
2002-04-25 08:38:45 51°18.213 3°1.893 59.3 1.6 71.2 9.6
2002-04-25 08:38:50 51°18.214 3°1.896 58.7 1.6 71.6 9.6
2002-04-25 08:38:55 51°18.215 3°1.9 57.8 1.6 70.5 9.6
2002-04-25 08:39:00 51°18.215 3°1.903 57.2 1.7 70.9 9.4
2002-04-25 08:39:05 51°18.216 3°1.907 56.7 1.6 70 9.6
2002-04-25 08:39:11 51°18.217 3°1.911 56.2 1.6 70.5 9.4
2002-04-25 08:39:15 51°18.218 3°1.914 55.3 1.6 70 9.4
2002-04-25 08:39:20 51°18.219 3°1.917 54.8 1.6 70.1 9.6
2002-04-25 08:39:25 51°18.219 3°1.92 54 1.6 69.2 9.2
2002-04-25 08:39:30 51°18.22 3°1.924 53.5 1.6 70.1 9.1
2002-04-25 08:39:36 51°18.221 3°1.928 53 1.6 71.3 9.4
2002-04-25 08:39:41 51°18.222 3°1.931 52.5 1.6 70.4 9.6
2002-04-25 08:39:45 51°18.223 3°1.933 52 1.6 69.1 9.5
2002-04-25 08:39:50 51°18.223 3°1.937 51 1.6 68.5 9.5
2002-04-25 08:39:55 51°18.224 3°1.94 50.2 1.6 68.3 9.5
2002-04-25 08:40:00 51°18.225 3°1.943 49.3 1.6 66 9.5
2002-04-25 08:40:05 51°18.226 3°1.946 48.5 1.6 63.9 9.5
2002-04-25 08:40:10 51°18.227 3°1.95 48 1.6 64.2 9.6
2002-04-25 08:40:15 51°18.228 3°1.953 47.3 1.6 60.8 9.5
2002-04-25 08:40:20 51°18.229 3°1.956 46.7 1.6 62.4 9.4
2002-04-25 08:40:25 51°18.23 3°1.959 46.2 1.6 63.1 9.6
2002-04-25 08:40:30 51°18.231 3°1.962 45.3 1.6 62.6 9.4
2002-04-25 08:40:35 51°18.232 3°1.965 44.3 1.6 62.8 9.4
2002-04-25 08:40:40 51°18.233 3°1.968 43.3 1.6 62.8 9.5
2002-04-25 08:40:45 51°18.234 3°1.971 42.5 1.6 63.1 9.6
2002-04-25 08:40:50 51°18.235 3°1.974 41.8 1.6 62.2 9.6
2002-04-25 08:40:55 51°18.236 3°1.977 40.7 1.5 60 9.6
2002-04-25 08:41:00 51°18.237 3°1.98 39.8 1.5 58.9 9.4
2002-04-25 08:41:05 51°18.238 3°1.983 39.2 1.5 60.9 9.4
2002-04-25 08:41:10 51°18.24 3°1.986 37.7 1.5 60.6 9.4
2002-04-25 08:41:15 51°18.241 3°1.989 37 1.5 60.2 9.4
2002-04-25 08:41:20 51°18.242 3°1.992 36 1.5 58.8 9.7
2002-04-25 08:41:25 51°18.243 3°1.995 35 1.5 58.1 9.6
2002-04-25 08:41:30 51°18.244 3°1.997 34.2 1.5 55.8 9.4
2002-04-25 08:41:35 51°18.246 3°2 33.3 1.5 54.5 9.6
2002-04-25 08:41:40 51°18.247 3°2.003 32.3 1.5 54.3 9.5
2002-04-25 08:41:45 51°18.248 3°2.005 31.8 1.5 53.9 9.6
2002-04-25 08:41:51 51°18.25 3°2.009 31 1.5 53.8 9.2
2002-04-25 08:41:55 51°18.251 3°2.011 29.7 1.5 51.9 9.6
2002-04-25 08:42:00 51°18.252 3°2.013 29 1.5 52.9 9.6
2002-04-25 08:42:05 51°18.253 3°2.016 28.2 1.5 51.2 9.5
2002-04-25 08:42:11 51°18.255 3°2.019 27.2 1.5 49.2 9.6
2002-04-25 08:42:15 51°18.256 3°2.021 26.2 1.5 48 9.6
2002-04-25 08:42:20 51°18.258 3°2.023 25.2 1.5 47.6 9.4
2002-04-25 08:42:25 51°18.259 3°2.026 24.5 1.5 47.1 9.6
2002-04-25 08:42:30 51°18.26 3°2.028 24.2 1.5 46.6 9.5
2002-04-25 08:42:35 51°18.262 3°2.031 23.5 1.6 45.6 9.6
2002-04-25 08:42:40 51°18.263 3°2.033 23 1.6 45.4 9.3
2002-04-25 08:42:45 51°18.265 3°2.036 22.8 1.6 44.2 9.5
2002-04-25 08:42:50 51°18.267 3°2.038 22.5 1.6 43.3 9.2
2002-04-25 08:42:55 51°18.268 3°2.04 21.5 1.6 41.2 9.2
2002-04-25 08:43:00 51°18.27 3°2.043 21.2 1.7 39.5 9.5
2002-04-25 08:43:05 51°18.272 3°2.045 20.7 1.8 39.1 9.6
2002-04-25 08:43:10 51°18.274 3°2.048 20.2 1.8 38.5 9.4
2002-04-25 08:43:15 51°18.276 3°2.05 20.3 1.8 40.4 9.6
2002-04-25 08:43:20 51°18.278 3°2.053 20.2 1.8 40.6 9.6
2002-04-25 08:43:25 51°18.28 3°2.056 20.5 1.9 40.6 9.5
2002-04-25 08:43:31 51°18.282 3°2.059 21 1.9 40 9.6
2002-04-25 08:43:35 51°18.284 3°2.061 20.8 1.9 40.5 9.6
2002-04-25 08:43:40 51°18.286 3°2.064 21.3 2 40.5 9.6
2002-04-25 08:43:45 51°18.288 3°2.067 22.3 2.1 38.6 9.1
2002-04-25 08:43:51 51°18.291 3°2.07 22.8 2.1 39.7 9.5
2002-04-25 08:43:55 51°18.293 3°2.073 23.7 2.2 39.7 9.5
2002-04-25 08:44:00 51°18.295 3°2.076 25 2.2 40.5 9.5
2002-04-25 08:44:05 51°18.298 3°2.079 26.2 2.3 40.7 9.5
2002-04-25 08:44:10 51°18.3 3°2.083 27.5 2.3 40.6 9.6
2002-04-25 08:44:15 51°18.303 3°2.086 28.7 2.4 39.8 9.2
2002-04-25 08:44:20 51°18.306 3°2.09 30.2 2.4 40.3 9.1
2002-04-25 08:44:25 51°18.308 3°2.093 31.7 2.5 41.6 9.6
2002-04-25 08:44:30 51°18.311 3°2.097 33.3 2.6 42.8 9.5
2002-04-25 08:44:35 51°18.313 3°2.101 34.7 2.6 43.5 9.4
2002-04-25 08:44:40 51°18.316 3°2.105 35.5 2.7 44.3 9.6
2002-04-25 08:44:45 51°18.319 3°2.109 35.8 2.7 43.9 9.3
2002-04-25 08:44:51 51°18.322 3°2.115 36.3 2.7 45 9.6
2002-04-25 08:44:55 51°18.324 3°2.118 36.2 2.8 44.2 9.6
2002-04-25 08:45:00 51°18.327 3°2.123 36 2.9 44 9.6
2002-04-25 08:45:05 51°18.33 3°2.127 37.2 2.9 45.1 9.4
2002-04-25 08:45:10 51°18.333 3°2.132 38.5 2.9 46.5 9.6
2002-04-25 08:45:15 51°18.336 3°2.136 40.7 2.9 47.4 9.6
2002-04-25 08:45:20 51°18.338 3°2.141 42.3 2.9 48.5 9.5
2002-04-25 08:45:25 51°18.341 3°2.146 44.5 2.9 50.6 9.2
2002-04-25 08:45:31 51°18.344 3°2.152 46.5 2.9 51.4 9.5
2002-04-25 08:45:35 51°18.346 3°2.156 48.8 2.8 53.4 9.5
2002-04-25 08:45:40 51°18.348 3°2.162 51 2.8 55.2 9.2
2002-04-25 08:45:45 51°18.35 3°2.167 52.5 2.8 57 9.6
2002-04-25 08:45:50 51°18.352 3°2.172 53.7 2.8 58.2 9.6
2002-04-25 08:45:55 51°18.354 3°2.177 54.5 2.7 59.6 9.5
2002-04-25 08:46:00 51°18.356 3°2.182 54.8 2.7 60.6 9.2
2002-04-25 08:46:05 51°18.357 3°2.187 54.7 2.7 60.1 9.4
2002-04-25 08:46:10 51°18.359 3°2.193 54.5 2.7 61 9.2
2002-04-25 08:46:15 51°18.361 3°2.198 54 2.7 60.5 9.5
2002-04-25 08:46:20 51°18.363 3°2.203 53.3 2.7 61.2 9.3
2002-04-25 08:46:25 51°18.365 3°2.208 52.7 2.6 59.8 9.4
2002-04-25 08:46:30 51°18.366 3°2.212 52.3 2.6 60.8 9.4
2002-04-25 08:46:35 51°18.368 3°2.217 51.7 2.5 59.9 9.3
2002-04-25 08:46:40 51°18.369 3°2.222 51.2 2.5 60.2 9.4
2002-04-25 08:46:45 51°18.371 3°2.226 49.8 2.4 59.2 9.5
2002-04-25 08:46:50 51°18.373 3°2.231 49.3 2.4 58.8 9.3
2002-04-25 08:46:55 51°18.375 3°2.235 48.7 2.4 57.9 8.9
2002-04-25 08:47:00 51°18.377 3°2.24 47.7 2.3 57.6 9.5
2002-04-25 08:47:05 51°18.378 3°2.244 46.8 2.3 57.4 9.3
2002-04-25 08:47:10 51°18.38 3°2.248 46.2 2.3 57.4 9.5
2002-04-25 08:47:15 51°18.382 3°2.252 45.5 2.2 57 9.5
2002-04-25 08:47:20 51°18.383 3°2.256 44.8 2.2 57 9.5
2002-04-25 08:47:25 51°18.385 3°2.26 44.7 2.2 58.3 9.4
2002-04-25 08:47:30 51°18.387 3°2.264 43.7 2.2 57.1 9.5
2002-04-25 08:47:35 51°18.388 3°2.268 42.8 2.1 56.7 9.4
2002-04-25 08:47:40 51°18.39 3°2.272 42.3 2.1 56.5 9.5
2002-04-25 08:47:45 51°18.392 3°2.276 41.5 2.1 55.5 9.3
2002-04-25 08:47:50 51°18.393 3°2.279 40.7 2 56.1 9.3
2002-04-25 08:47:55 51°18.395 3°2.283 39.5 2 56 9.5
2002-04-25 08:48:00 51°18.397 3°2.286 38 2 54.8 9.4
2002-04-25 08:48:05 51°18.398 3°2.29 36.8 1.9 54.3 9.4
2002-04-25 08:48:11 51°18.4 3°2.294 35.8 1.9 54.7 9.4
2002-04-25 08:48:15 51°18.402 3°2.296 34.3 1.9 53.4 9.2
2002-04-25 08:48:20 51°18.403 3°2.3 33 1.9 53.3 9.2
2002-04-25 08:48:25 51°18.405 3°2.303 32 1.9 51.9 9.3
2002-04-25 08:48:30 51°18.406 3°2.306 30.5 1.8 50 9
2002-04-25 08:48:35 51°18.408 3°2.309 29.3 1.8 49.5 9.4
2002-04-25 08:48:40 51°18.409 3°2.312 28.7 1.8 50.8 9.2
2002-04-25 08:48:45 51°18.411 3°2.315 27.3 1.7 49.8 9.4
2002-04-25 08:48:51 51°18.413 3°2.318 26.5 1.7 50.5 9.5
2002-04-25 08:48:55 51°18.414 3°2.321 25 1.7 51.9 9.5
2002-04-25 08:49:00 51°18.415 3°2.323 24 1.6 51.4 9.4
2002-04-25 08:49:05 51°18.417 3°2.326 23.3 1.6 52.5 9.4
2002-04-25 08:49:11 51°18.419 3°2.329 22.5 1.6 51.1 9.3
2002-04-25 08:49:15 51°18.42 3°2.331 21.7 1.5 50 9.5
2002-04-25 08:49:20 51°18.421 3°2.334 20.8 1.5 49.2 9.4
2002-04-25 08:49:25 51°18.422 3°2.336 20 1.5 48.4 9.5
2002-04-25 08:49:30 51°18.424 3°2.338 19.5 1.5 46.8 9.3
2002-04-25 08:49:36 51°18.426 3°2.341 19 1.5 47.3 9.3
2002-04-25 08:49:40 51°18.427 3°2.343 18.2 1.5 47.7 9
2002-04-25 08:49:45 51°18.428 3°2.346 17.2 1.5 48.7 9.1
2002-04-25 08:49:50 51°18.429 3°2.348 16.3 1.4 47.8 9.4
2002-04-25 08:49:55 51°18.431 3°2.35 16 1.4 48.6 9.2
2002-04-25 08:50:00 51°18.432 3°2.352 15.5 1.4 48.6 9.4
2002-04-25 08:50:05 51°18.433 3°2.355 14.8 1.4 49.1 9.4
2002-04-25 08:50:10 51°18.434 3°2.357 14.2 1.4 49.3 9.3
2002-04-25 08:50:15 51°18.435 3°2.359 13.3 1.4 48.5 9.4
2002-04-25 08:50:20 51°18.437 3°2.361 12.3 1.4 47 9.2
2002-04-25 08:50:25 51°18.439 3°2.364 11.3 1.6 39.1 9.4
2002-04-25 08:50:30 51°18.441 3°2.366 9 1.8 34.9 9.2
2002-04-25 08:50:35 51°18.444 3°2.368 6.2 2 30 9.3
2002-04-25 08:50:40 51°18.447 3°2.369 3.8 2.1 26.2 9.5
2002-04-25 08:50:45 51°18.45 3°2.371 1 2.4 20.6 9.4
2002-04-25 08:50:50 51°18.454 3°2.373 358.7 2.6 17.3 9.3
2002-04-25 08:50:55 51°18.457 3°2.374 357.3 2.8 15.5 9.4
2002-04-25 08:51:00 51°18.461 3°2.376 357.2 2.9 14.1 9.3
2002-04-25 08:51:05 51°18.466 3°2.377 357.3 3.1 12.2 9.3
2002-04-25 08:51:10 51°18.471 3°2.378 357 3.5 9.3 9.1
2002-04-25 08:51:15 51°18.477 3°2.379 357 4.1 6.5 9
2002-04-25 08:51:20 51°18.484 3°2.38 357.7 4.7 5.2 8.8
2002-04-25 08:51:25 51°18.493 3°2.38 358.7 5.8 3.6 9.3
2002-04-25 08:51:30 51°18.502 3°2.382 0.7 6.3 4.3 9
2002-04-25 08:51:35 51°18.513 3°2.384 2.3 7.1 5.3 8.4
2002-04-25 08:51:40 51°18.524 3°2.386 4.3 7.8 6.4 8.9
2002-04-25 08:51:45 51°18.537 3°2.389 6.5 8.5 7.4 9
2002-04-25 08:51:50 51°18.55 3°2.391 5.5 9 7.3 8.7
2002-04-25 08:51:55 51°18.564 3°2.394 5.3 9.7 6.7 9
2002-04-25 08:52:00 51°18.578 3°2.397 7.3 10.1 7.2 8.4
2002-04-25 08:52:05 51°18.592 3°2.402 10 10.6 10.2 8.5
2002-04-25 08:52:10 51°18.607 3°2.409 14.3 10.8 12.3 8.7
2002-04-25 08:52:15 51°18.622 3°2.417 19.2 11.1 17.6 8.8
2002-04-25 08:52:20 51°18.636 3°2.428 25.5 11.3 23 -999
2002-04-25 08:52:25 51°18.65 3°2.442 32 11.5 29.3 8.9
2002-04-25 08:52:30 51°18.663 3°2.457 37.5 11.6 32.8 8.6
2002-04-25 08:52:35 51°18.675 3°2.474 40 11.7 37.8 8.8
2002-04-25 08:52:40 51°18.688 3°2.491 41.8 11.8 39.5 8.6
2002-04-25 08:52:45 51°18.701 3°2.508 41.7 11.9 40 8.7
2002-04-25 08:52:50 51°18.713 3°2.525 41.3 11.9 40.3 8.8
2002-04-25 08:52:55 51°18.726 3°2.542 40.3 12 39.4 8.8
2002-04-25 08:53:00 51°18.74 3°2.558 38.8 12 38 8.9
2002-04-25 08:53:05 51°18.753 3°2.573 36.2 12 35.5 8.6
2002-04-25 08:53:11 51°18.771 3°2.589 31.8 12 32.8 8.9
2002-04-25 08:53:15 51°18.782 3°2.598 28.3 12 28.4 8.6
2002-04-25 08:53:20 51°18.798 3°2.61 26.2 12 26.4 8.8
2002-04-25 08:53:25 51°18.813 3°2.62 24.3 12 24 8.9
2002-04-25 08:53:30 51°18.829 3°2.63 22.7 12.1 22.8 8.7
2002-04-25 08:53:35 51°18.844 3°2.64 21.3 12.1 22 8.8
2002-04-25 08:53:40 51°18.86 3°2.651 23.5 12.1 23.2 8.7
2002-04-25 08:53:45 51°18.875 3°2.662 25.3 12.2 24.4 8.4
2002-04-25 08:53:50 51°18.89 3°2.675 28 12.2 26.4 8.8
2002-04-25 08:53:55 51°18.905 3°2.689 30.5 12.3 29.3 8.7
2002-04-25 08:54:00 51°18.919 3°2.703 31.7 12.3 30.7 8.9
2002-04-25 08:54:05 51°18.934 3°2.717 31.8 12.3 31.8 8.7
2002-04-25 08:54:10 51°18.948 3°2.733 35 12.3 33.4 8.8
2002-04-25 08:54:15 51°18.962 3°2.748 34.8 12.3 34.3 8.8
2002-04-25 08:54:20 51°18.976 3°2.763 35.7 12.3 34.9 8.9
2002-04-25 08:54:25 51°18.99 3°2.78 37.3 12.5 36.5 8.8
2002-04-25 08:54:30 51°19.004 3°2.798 38.8 12.6 37.8 8.7
2002-04-25 08:54:35 51°19.018 3°2.814 38.5 12.7 37.6 8.9
2002-04-25 08:54:40 51°19.031 3°2.832 39.7 12.8 38.7 8.9
2002-04-25 08:54:45 51°19.045 3°2.851 40.7 12.9 39 8.8
2002-04-25 08:54:50 51°19.059 3°2.869 41 13 39.7 8.8
2002-04-25 08:54:55 51°19.073 3°2.888 41 13 40.1 8.4
2002-04-25 08:55:00 51°19.087 3°2.907 41.2 13.1 40.3 8.5
2002-04-25 08:55:05 51°19.101 3°2.926 41 13.2 40.7 8.8
2002-04-25 08:55:10 51°19.114 3°2.946 44 13.2 42.2 8.7
2002-04-25 08:55:15 51°19.128 3°2.965 41.8 13.2 41.5 8.8
2002-04-25 08:55:20 51°19.141 3°2.985 44 13.2 42 8.6
2002-04-25 08:55:26 51°19.158 3°3.008 43 13.2 42.5 8.8
2002-04-25 08:55:30 51°19.169 3°3.023 41 13.2 41.1 8.6
2002-04-25 08:55:35 51°19.183 3°3.041 38.7 13.2 39.3 8.8
2002-04-25 08:55:40 51°19.199 3°3.057 35.2 13.2 36.6 8.7
2002-04-25 08:55:45 51°19.214 3°3.073 33.7 13.1 33.7 8.4
2002-04-25 08:55:50 51°19.229 3°3.087 30.3 13 30.7 8.8
2002-04-25 08:55:55 51°19.245 3°3.1 27 13.1 27.9 8.7
2002-04-25 08:56:00 51°19.262 3°3.113 26.3 13.1 26.7 8.4
2002-04-25 08:56:05 51°19.278 3°3.127 28.2 13 27.7 8.8
2002-04-25 08:56:11 51°19.295 3°3.147 31.8 13 30.9 8.6
2002-04-25 08:56:14 51°19.305 3°3.155 34.2 13.1 33.1 8.8
2002-04-25 08:56:20 51°19.321 3°3.179 40.3 13.1 36.8 8.7
2002-04-25 08:56:25 51°19.335 3°3.198 42.7 13.2 41.6 8.9
2002-04-25 08:56:31 51°19.35 3°3.223 45.8 13.1 44.1 8.9
2002-04-25 08:56:35 51°19.362 3°3.237 42.2 13.1 42.9 9
2002-04-25 08:56:40 51°19.374 3°3.258 45 13.1 43.4 8.6
2002-04-25 08:56:45 51°19.389 3°3.274 38.5 13.1 39.9 8.6
2002-04-25 08:56:50 51°19.403 3°3.293 38.7 13.1 38.9 8.8
2002-04-25 08:56:55 51°19.418 3°3.309 34.5 13.1 35.4 8.5
2002-04-25 08:57:00 51°19.433 3°3.326 33.8 13.1 34.5 8.7
2002-04-25 08:57:06 51°19.451 3°3.345 34.2 13 33.9 8.8
2002-04-25 08:57:11 51°19.466 3°3.362 35.5 13 34.5 8.6
2002-04-25 08:57:15 51°19.478 3°3.375 36.7 13.1 35.7 8.4
2002-04-25 08:57:20 51°19.492 3°3.394 38.8 13.2 37.2 8.7
2002-04-25 08:57:25 51°19.506 3°3.412 39 13.1 38.7 8.9
2002-04-25 08:57:31 51°19.521 3°3.433 40.8 12.9 39.6 8.7
2002-04-25 08:57:35 51°19.532 3°3.445 37.8 12.2 38.3 8.6
2002-04-25 08:57:40 51°19.544 3°3.461 39.2 11.7 39 8.5
2002-04-25 08:57:45 51°19.556 3°3.475 37 10.9 37.2 8.7
2002-04-25 08:57:50 51°19.566 3°3.487 35.8 10.1 37.1 8.9
2002-04-25 08:57:55 51°19.577 3°3.498 34.2 9.3 35.4 8.6
2002-04-25 08:58:00 51°19.586 3°3.509 31.7 8.6 34.7 9
2002-04-25 08:58:05 51°19.595 3°3.518 29.3 7.8 33.1 9.1
2002-04-25 08:58:10 51°19.604 3°3.525 27.7 7.3 31.8 9
2002-04-25 08:58:15 51°19.612 3°3.533 25.7 6.7 29.9 9
2002-04-25 08:58:20 51°19.619 3°3.539 23 6.3 28.8 8.9
2002-04-25 08:58:25 51°19.626 3°3.544 21.2 5.9 27.5 8.9
2002-04-25 08:58:31 51°19.634 3°3.551 20.2 5.7 26.4 9.1
2002-04-25 08:58:35 51°19.639 3°3.555 18.5 5.3 25.9 8.9
2002-04-25 08:58:40 51°19.645 3°3.559 17.7 5 25.7 8.7
2002-04-25 08:58:45 51°19.651 3°3.563 16.7 4.7 25.2 9.1
2002-04-25 08:58:50 51°19.656 3°3.567 16.3 4.5 24.8 9.1
2002-04-25 08:58:55 51°19.662 3°3.571 15.8 4.3 24.5 9.1
2002-04-25 08:59:00 51°19.667 3°3.575 15.3 4.2 24.4 9.1
2002-04-25 08:59:05 51°19.671 3°3.579 14.2 4 25.2 8.8
2002-04-25 08:59:10 51°19.676 3°3.583 14.2 3.8 25.9 9.1
2002-04-25 08:59:15 51°19.681 3°3.586 13.8 3.7 26.1 8.7
2002-04-25 08:59:20 51°19.685 3°3.59 13.8 3.5 26.7 8.7
2002-04-25 08:59:26 51°19.69 3°3.594 13.3 3.4 27 8.8
2002-04-25 08:59:31 51°19.694 3°3.597 12.8 3.3 27.1 8.7
2002-04-25 08:59:35 51°19.697 3°3.6 12.3 3.2 27.4 8.6
2002-04-25 08:59:40 51°19.7 3°3.603 11.3 3 27.9 8.8
2002-04-25 08:59:45 51°19.702 3°3.605 10.7 2.4 32 9
2002-04-25 08:59:50 51°19.704 3°3.608 10.2 2 36.3 8.8
2002-04-25 08:59:55 51°19.706 3°3.61 10.8 1.6 44.5 8.8
2002-04-25 09:00:00 51°19.706 3°3.613 12 1.4 55.6 9.1
2002-04-25 09:00:06 51°19.707 3°3.615 12 1.2 67.2 9.1
2002-04-25 09:00:10 51°19.707 3°3.618 12.5 1.2 71.3 8.7
2002-04-25 09:00:15 51°19.708 3°3.62 12.5 1.2 69.8 9
2002-04-25 09:00:20 51°19.708 3°3.623 12.8 1.3 70.5 8.9
2002-04-25 09:00:25 51°19.709 3°3.625 12.2 1.3 68.6 9
2002-04-25 09:00:30 51°19.709 3°3.628 12.3 1.3 70.4 9
2002-04-25 09:00:36 51°19.71 3°3.632 12 1.3 70.6 9.1
2002-04-25 09:00:40 51°19.711 3°3.634 12.2 1.3 71 9
2002-04-25 09:00:45 51°19.711 3°3.636 11.7 1.3 70 9
2002-04-25 09:00:50 51°19.712 3°3.639 10.3 1.3 68.8 8.9
2002-04-25 09:00:55 51°19.712 3°3.642 9.3 1.3 68.2 9.1
2002-04-25 09:01:00 51°19.713 3°3.644 8.7 1.3 69 9
2002-04-25 09:01:05 51°19.713 3°3.647 8.2 1.3 70.5 9
2002-04-25 09:01:11 51°19.714 3°3.65 7.3 1.2 69.8 9.2
2002-04-25 09:01:15 51°19.715 3°3.652 6.5 1.2 70.7 9.2
2002-04-25 09:01:20 51°19.715 3°3.654 5.3 1.2 71.5 9
2002-04-25 09:01:25 51°19.715 3°3.657 4.3 1.2 73.5 9.1
2002-04-25 09:01:30 51°19.716 3°3.659 3.2 1.2 74.3 8.9
2002-04-25 09:01:35 51°19.717 3°3.662 2.5 1.3 72.5 9
2002-04-25 09:01:40 51°19.718 3°3.665 2 1.3 72.3 9
2002-04-25 09:01:45 51°19.718 3°3.667 1.5 1.2 73 9
2002-04-25 09:01:50 51°19.719 3°3.67 0.8 1.3 74.4 9.1
2002-04-25 09:01:55 51°19.72 3°3.673 359.5 1.4 75 8.9
2002-04-25 09:02:00 51°19.721 3°3.675 359 1.4 72.9 8.8
2002-04-25 09:02:05 51°19.721 3°3.678 359.3 1.4 74.5 8.9
2002-04-25 09:02:11 51°19.722 3°3.681 358.7 1.3 76.2 8.9
2002-04-25 09:02:15 51°19.722 3°3.684 358.2 1.3 78.1 9
2002-04-25 09:02:20 51°19.723 3°3.686 357.8 1.3 77.9 8.9
2002-04-25 09:02:26 51°19.723 3°3.69 357.3 1.3 77.6 -999
2002-04-25 09:02:30 51°19.723 3°3.692 356.7 1.3 78.8 9.1
2002-04-25 09:02:35 51°19.724 3°3.695 356.5 1.2 78.5 9.1
2002-04-25 09:02:40 51°19.724 3°3.697 356.3 1.3 79.2 9.2
2002-04-25 09:02:45 51°19.724 3°3.7 356 1.2 80.2 9.2
2002-04-25 09:02:51 51°19.725 3°3.703 355.7 1.3 78.5 9.1
2002-04-25 09:02:55 51°19.725 3°3.705 355.3 1.3 76.7 8.6
2002-04-25 09:03:00 51°19.726 3°3.708 355.5 1.3 77.2 9
2002-04-25 09:03:05 51°19.726 3°3.711 355.5 1.3 80.6 9.1
2002-04-25 09:03:10 51°19.726 3°3.714 355.5 1.3 80.8 9
2002-04-25 09:03:15 51°19.726 3°3.717 355.3 1.3 78.5 9.1
2002-04-25 09:03:20 51°19.726 3°3.719 354.5 1.2 77.8 9
2002-04-25 09:03:25 51°19.727 3°3.722 354.5 1.3 77.6 9.3
2002-04-25 09:03:30 51°19.727 3°3.725 353.5 1.3 77.3 8.8
2002-04-25 09:03:35 51°19.727 3°3.727 353.3 1.3 78.6 9.3
2002-04-25 09:03:40 51°19.727 3°3.73 353.2 1.3 78.7 9.3
2002-04-25 09:03:45 51°19.728 3°3.734 354 1.4 77.3 9.2
2002-04-25 09:03:51 51°19.728 3°3.737 353.8 1.3 76.9 9.1
2002-04-25 09:03:55 51°19.729 3°3.739 353.8 1.3 77.8 9
2002-04-25 09:04:00 51°19.729 3°3.742 353.5 1.3 77.4 9.1
2002-04-25 09:04:05 51°19.73 3°3.745 352.8 1.4 76 9
2002-04-25 09:04:10 51°19.73 3°3.747 352.8 1.4 76 9.2
2002-04-25 09:04:15 51°19.731 3°3.75 352.5 1.4 76.8 9.2
2002-04-25 09:04:20 51°19.732 3°3.753 352.5 1.4 76.8 8.9
2002-04-25 09:04:25 51°19.732 3°3.756 353.5 1.4 76.8 9.1
2002-04-25 09:04:30 51°19.733 3°3.759 353.5 1.4 76.2 9.1
2002-04-25 09:04:35 51°19.734 3°3.762 354 1.4 75 8.9
2002-04-25 09:04:40 51°19.734 3°3.765 354 1.3 75.4 9.2
2002-04-25 09:04:45 51°19.734 3°3.768 354.3 1.3 76.4 9.2
2002-04-25 09:04:50 51°19.735 3°3.771 354.8 1.3 77.1 9.1
2002-04-25 09:04:55 51°19.735 3°3.773 355 1.3 77.1 9.2
2002-04-25 09:05:00 51°19.735 3°3.776 355 1.3 77.4 9.2
2002-04-25 09:05:05 51°19.736 3°3.779 354.8 1.3 77.2 9.1
2002-04-25 09:05:10 51°19.736 3°3.782 355.2 1.4 77.4 9
2002-04-25 09:05:15 51°19.737 3°3.785 354.5 1.4 76.8 9
2002-04-25 09:05:20 51°19.737 3°3.788 354.5 1.4 75.8 9.1
2002-04-25 09:05:25 51°19.737 3°3.791 354.2 1.4 75.8 9
2002-04-25 09:05:30 51°19.738 3°3.794 354.2 1.4 76.5 9.2
2002-04-25 09:05:35 51°19.738 3°3.797 354.2 1.4 78.5 9.1
2002-04-25 09:05:41 51°19.738 3°3.801 354.2 1.4 79.4 8.8
2002-04-25 09:05:45 51°19.738 3°3.803 354.5 1.4 79.9 9.1
2002-04-25 09:05:50 51°19.739 3°3.806 354.7 1.4 81.2 9
2002-04-25 09:05:55 51°19.738 3°3.81 354.3 1.4 79.5 9
2002-04-25 09:06:00 51°19.739 3°3.813 354.3 1.5 78.4 9.2
2002-04-25 09:06:05 51°19.739 3°3.816 354 1.5 78.2 9.1
2002-04-25 09:06:10 51°19.739 3°3.819 354.2 1.5 78.3 9.1
2002-04-25 09:06:15 51°19.739 3°3.822 354.2 1.4 78.7 9
2002-04-25 09:06:20 51°19.74 3°3.825 354.3 1.4 78.4 8.9
2002-04-25 09:06:25 51°19.74 3°3.828 354 1.4 78.2 9.1
2002-04-25 09:06:30 51°19.74 3°3.831 354 1.4 78.3 9
2002-04-25 09:06:35 51°19.741 3°3.834 354 1.4 79.7 9.2
2002-04-25 09:06:40 51°19.741 3°3.837 353.8 1.4 79.8 8.8
2002-04-25 09:06:45 51°19.742 3°3.84 354 1.4 79.2 9.2
2002-04-25 09:06:50 51°19.742 3°3.843 354.2 1.4 77.9 9.3
2002-04-25 09:06:55 51°19.743 3°3.846 354.5 1.4 77.3 9.3
2002-04-25 09:07:01 51°19.743 3°3.85 354.5 1.4 77.3 8.9